createdAt,value
2023-09-19T05:30:40.720Z,102.05
2023-09-19T05:40:43.898Z,100.45
2023-09-19T05:50:49.777Z,99.10
2023-09-19T06:00:53.296Z,97.37
2023-09-19T06:10:57.372Z,95.92
2023-09-19T06:21:00.538Z,94.56
2023-09-19T06:31:10.790Z,93.31
2023-09-19T06:41:14.457Z,93.53
2023-09-19T06:51:18.652Z,91.67
2023-09-19T07:01:21.475Z,90.92
2023-09-19T07:11:25.612Z,90.30
2023-09-19T07:21:28.274Z,89.09
2023-09-19T07:31:33.102Z,87.67
2023-09-19T07:41:36.490Z,86.13
2023-09-19T07:51:41.162Z,84.30
2023-09-19T08:01:45.525Z,82.94
2023-09-19T08:11:51.366Z,82.33
2023-09-19T08:21:54.052Z,79.90
2023-09-19T08:31:58.700Z,80.59
2023-09-19T08:42:01.938Z,77.65
2023-09-19T08:52:12.322Z,75.84
2023-09-19T09:02:18.062Z,76.02
2023-09-19T09:12:22.517Z,76.21
2023-09-19T09:22:25.976Z,76.06
2023-09-19T09:32:34.572Z,75.54
2023-09-19T09:42:40.304Z,74.98
2023-09-19T09:52:50.433Z,73.15
2023-09-19T10:02:53.323Z,71.47
2023-09-19T10:13:03.990Z,71.66
2023-09-19T10:23:11.739Z,67.28
2023-09-19T10:33:17.538Z,64.89
2023-09-19T10:43:22.010Z,65.84
2023-09-19T10:53:26.215Z,66.73
2023-09-19T11:03:32.182Z,62.88
2023-09-19T11:13:38.275Z,60.96
2023-09-19T11:23:41.006Z,47.02
2023-09-19T11:33:47.762Z,47.98
2023-09-19T11:43:54.717Z,46.93
2023-09-19T11:54:01.436Z,45.14
2023-09-19T12:04:06.387Z,52.77
2023-09-19T12:14:10.626Z,41.00
2023-09-19T12:24:15.331Z,52.10
2023-09-19T12:34:21.964Z,56.79
2023-09-19T12:44:25.893Z,59.33
2023-09-19T12:54:41.158Z,60.40
2023-09-19T13:04:54.498Z,62.50
2023-09-19T13:15:14.514Z,62.74
2023-09-19T13:25:19.544Z,62.66
2023-09-19T13:35:24.169Z,63.19
2023-09-19T13:45:31.559Z,63.24
2023-09-19T13:55:35.706Z,63.39
2023-09-19T14:05:38.769Z,64.55
2023-09-19T14:15:43.655Z,64.14
2023-09-19T14:25:46.427Z,64.24
2023-09-19T14:35:50.909Z,65.09
2023-09-19T14:45:53.666Z,65.95
2023-09-19T14:55:57.841Z,64.71
2023-09-19T15:06:05.697Z,65.02
2023-09-19T15:16:11.073Z,65.27
2023-09-19T15:26:18.346Z,64.45
2023-09-19T15:36:22.515Z,64.79
2023-09-19T15:46:27.794Z,66.22
2023-09-19T15:56:31.832Z,66.39
2023-09-19T16:06:34.568Z,66.77
2023-09-19T16:16:39.188Z,67.12
2023-09-19T16:26:42.202Z,67.30
2023-09-19T16:36:47.130Z,67.66
2023-09-19T16:46:49.862Z,68.20
2023-09-19T16:56:53.879Z,68.52
2023-09-19T17:06:56.602Z,69.30
2023-09-19T17:17:00.713Z,69.19
2023-09-19T17:27:03.395Z,72.28
2023-09-19T17:37:09.274Z,75.89
2023-09-19T17:47:12.313Z,79.67
2023-09-19T17:57:16.883Z,80.40
2023-09-19T18:07:19.607Z,80.43
2023-09-19T18:17:23.668Z,79.91
2023-09-19T18:27:26.353Z,78.60
2023-09-19T18:37:30.457Z,77.95
2023-09-19T18:47:33.182Z,78.45
2023-09-19T18:57:37.631Z,80.42
2023-09-19T19:07:40.494Z,90.02
2023-09-19T19:17:45.003Z,94.30
2023-09-19T19:27:48.510Z,97.29
2023-09-19T19:37:52.599Z,97.26
2023-09-19T19:47:55.403Z,98.63
2023-09-19T19:58:00.678Z,98.10
2023-09-19T20:08:04.827Z,98.72
2023-09-19T20:18:12.705Z,99.67
2023-09-19T20:28:16.024Z,99.72
2023-09-19T20:38:20.205Z,99.34
2023-09-19T20:48:23.109Z,98.31
2023-09-19T20:58:28.628Z,98.28
2023-09-19T21:08:32.986Z,98.70
2023-09-19T21:18:37.649Z,99.23
2023-09-19T21:28:41.093Z,98.98
2023-09-19T21:38:45.476Z,98.27
2023-09-19T21:48:49.556Z,97.04
2023-09-19T21:58:55.034Z,96.55
2023-09-19T22:08:57.756Z,95.79
2023-09-19T22:19:01.768Z,95.84
2023-09-19T22:29:04.593Z,95.34
2023-09-19T22:39:14.102Z,94.77
2023-09-19T22:49:18.902Z,93.80
2023-09-19T22:59:23.895Z,93.32
2023-09-19T23:09:27.619Z,92.66
2023-09-19T23:19:32.532Z,91.85
2023-09-19T23:29:39.530Z,91.91
2023-09-19T23:39:43.754Z,91.21
2023-09-19T23:49:48.668Z,91.40
2023-09-19T23:59:52.728Z,91.22
